Decoded Metar for K24A ( in ) (IATA:) | Meteo·Mobile Aviation Weather
aviador You're here:

K24A Decoded Metar

in
Report Time2018-10-17 03:40:00
UTC Time2018-10-17 04:00:35
Flight Rules lifr LIFR
WindCalm
Visibility805 m
Phenomena:Fog
Clouds:Overcast 003 Hf
Ceiling300 ft
Temp15°C
Dew Point15°C (100% RH)
QNH1024 hPa
Raw Report
METAR K24A 170340Z AUTO 00000KT 1/2SM FG OVC003 15/15 A3023 RMK AO2
LTG DSNT SE T01520151=

Extra information for K24A:More info

Social comments